Date,TemperatureHighF,TemperatureAvgF,TemperatureLowF,DewpointHighF,DewpointAvgF,DewpointLowF,HumidityHigh,HumidityAvg,HumidityLow,PressureMaxIn,PressureMinIn,WindSpeedMaxMPH,WindSpeedAvgMPH,GustSpeedMaxMPH,PrecipitationSumIn
2013-1-1,19,8,-5,9,3,-9,90,79,52,0.00,40.00,9,4,11,0.00
2013-1-2,11,0,-12,5,-5,-17,91,81,74,0.00,40.00,7,3,8,0.00
2013-1-3,11,2,-7,3,-3,-11,86,80,67,0.00,40.00,7,4,8,0.00
2013-1-4,12,-2,-14,7,-7,-20,87,79,70,0.00,40.00,7,2,8,0.00
2013-1-5,13,-1,-14,6,-6,-20,88,79,68,0.00,40.00,8,3,9,0.00
2013-1-6,19,8,-5,10,2,-10,88,77,63,0.00,40.00,10,3,11,0.00
2013-1-7,18,10,-5,11,5,-9,90,80,68,0.00,40.00,12,5,14,0.00
2013-1-8,33,22,15,20,15,10,88,73,51,0.00,40.00,15,6,16,0.00
2013-1-9,39,23,5,24,16,1,93,73,45,0.00,40.00,12,7,13,0.00
2013-1-10,47,35,20,29,23,18,94,63,33,0.00,40.00,28,10,34,0.00
2013-1-11,21,18,14,18,12,7,92,79,60,0.00,40.00,19,10,24,0.00
2013-1-12,19,11,6,13,7,1,89,83,70,0.00,40.00,9,4,10,0.00
2013-1-13,11,4,-6,3,-2,-11,84,75,62,0.00,40.00,8,4,9,0.00
2013-1-14,5,-5,-17,-3,-11,-23,84,73,59,0.00,40.00,10,5,11,0.00
2013-1-15,19,10,-3,3,0,-9,74,63,46,0.00,40.00,10,5,11,0.00
2013-1-16,24,13,6,10,6,1,82,70,50,0.00,40.00,9,4,12,0.00
2013-1-17,18,7,-7,13,2,-12,88,81,71,0.00,40.00,9,3,9,0.00
2013-1-18,14,6,-8,11,2,-13,92,83,74,0.00,40.00,8,3,8,0.00
2013-1-19,17,5,-8,10,1,-12,89,80,70,0.00,40.00,9,3,11,0.00
2013-1-20,16,5,-9,13,0,-14,90,81,74,0.00,40.00,10,3,12,0.00
2013-1-21,23,6,-8,17,1,-13,89,80,67,0.00,40.00,8,2,10,0.00
2013-1-22,25,8,-9,12,2,-14,89,77,55,0.00,40.00,6,2,7,0.00
2013-1-23,33,17,-1,19,9,-6,89,72,53,0.00,40.00,13,5,13,0.00
2013-1-24,39,34,27,34,27,18,91,76,42,0.00,40.00,13,6,15,0.00
2013-1-25,37,35,33,35,33,31,94,92,87,0.00,40.00,11,3,13,0.00
2013-1-26,38,34,28,35,32,27,96,92,80,0.00,40.00,12,6,15,0.00
2013-1-27,44,34,26,33,30,25,95,87,57,0.00,40.00,23,9,29,0.00
2013-1-28,32,24,18,25,19,12,95,83,55,0.00,40.00,11,4,13,0.00
2013-1-29,24,20,17,21,17,12,94,87,72,0.00,40.00,19,9,21,0.00
2013-1-30,32,26,18,27,23,16,93,87,79,0.00,40.00,20,13,25,0.00
2013-1-31,39,32,23,27,24,20,86,73,59,0.00,40.00,12,7,14,0.00
2013-2-1,40,26,16,25,20,12,94,76,49,0.00,40.00,13,6,14,0.00
2013-2-2,32,21,5,23,16,2,94,82,60,0.00,40.00,8,3,9,0.00
2013-2-3,41,25,15,26,20,13,94,80,52,0.00,40.00,9,4,10,0.00
2013-2-4,35,22,8,23,16,6,95,78,52,0.00,40.00,7,3,8,0.00
2013-2-5,41,28,11,25,19,8,93,70,42,0.00,40.00,11,5,13,0.00
2013-2-6,39,32,26,27,23,18,89,71,51,0.00,40.00,15,8,18,0.00
2013-2-7,44,28,9,21,16,6,92,63,30,0.00,40.00,9,5,11,0.00
2013-2-8,39,32,26,31,23,16,95,71,44,0.00,40.00,21,6,25,0.00
2013-2-9,31,26,24,26,23,19,94,87,74,0.00,40.00,15,7,17,0.00
2013-2-10,29,24,20,26,20,17,94,88,64,0.00,40.00,11,5,14,0.00
2013-2-11,29,21,9,20,16,5,92,81,59,0.00,40.00,9,4,9,0.00
2013-2-12,26,16,1,18,11,-2,93,78,63,0.00,40.00,12,7,13,0.00
2013-2-13,35,28,22,24,20,17,85,73,55,0.00,40.00,10,5,11,0.00
2013-2-14,37,31,23,27,23,18,90,71,55,0.00,40.00,13,6,15,0.00
2013-2-15,38,26,14,24,19,11,94,74,53,0.00,40.00,10,5,12,0.00
2013-2-16,42,28,16,22,18,12,91,67,37,0.00,40.00,13,5,14,0.00
2013-2-17,38,31,24,25,18,12,80,59,43,0.00,40.00,16,9,20,0.00
2013-2-18,36,25,14,16,11,6,80,57,28,0.00,40.00,11,6,12,0.00
2013-2-19,47,36,23,20,13,5,66,39,27,0.00,40.00,11,5,14,0.00
2013-2-20,43,34,29,30,23,12,93,65,34,0.00,40.00,12,5,15,0.00
2013-2-21,34,27,24,27,22,15,94,81,50,0.00,40.00,10,3,11,0.00
2013-2-22,31,23,17,24,18,12,90,78,62,0.00,40.00,13,8,14,0.00
2013-2-23,34,26,20,23,16,11,81,66,46,0.00,40.00,15,7,19,0.00
2013-2-24,28,24,17,19,15,8,91,69,52,0.00,40.00,15,9,20,0.00
2013-2-25,37,22,9,18,11,3,80,61,28,0.00,40.00,15,7,17,0.00
2013-2-26,33,25,20,21,16,10,90,70,45,0.00,40.00,12,4,15,0.00
2013-2-27,33,20,8,16,9,2,81,64,43,0.00,40.00,10,5,11,0.00
2013-2-28,41,27,14,21,13,7,76,56,32,0.00,40.00,12,6,16,0.00
2013-3-1,48,37,31,31,24,16,78,58,44,0.00,40.00,9,4,10,0.00
2013-3-2,51,36,21,33,27,20,93,70,43,0.00,40.00,9,4,11,0.00
2013-3-3,44,40,33,37,31,26,88,70,56,0.00,40.00,13,6,18,0.00
2013-3-4,40,33,22,35,16,4,89,51,25,0.00,40.00,15,8,21,0.00
2013-3-5,51,34,17,22,14,8,75,46,20,0.00,40.00,12,5,15,0.00
2013-3-6,54,43,35,29,23,17,61,45,30,0.00,40.00,17,8,23,0.00
2013-3-7,50,40,33,33,30,24,83,69,37,0.00,40.00,13,7,20,0.00
2013-3-8,42,38,34,37,32,28,90,79,62,0.00,40.00,12,6,15,0.00
2013-3-9,45,37,33,34,26,17,91,67,38,0.00,40.00,16,11,23,0.00
2013-3-10,35,32,29,19,17,15,65,52,46,0.00,40.00,10,6,13,0.00
2013-3-11,54,40,29,31,25,22,79,58,32,0.00,40.00,14,8,17,0.00
2013-3-12,57,46,36,32,29,25,77,54,30,0.00,40.00,10,5,13,0.00
2013-3-13,65,49,35,33,27,18,73,48,16,0.00,40.00,10,7,15,0.00
2013-3-14,73,56,43,30,26,19,53,34,13,0.00,40.00,13,8,17,0.00
2013-3-15,69,59,49,31,26,22,46,28,17,0.00,40.00,11,7,15,0.00
2013-3-16,60,51,41,28,23,16,49,32,23,0.00,40.00,13,6,17,0.00
2013-3-17,50,43,35,27,21,12,52,40,21,0.00,40.00,18,9,25,0.00
2013-3-18,52,38,25,22,15,8,72,42,17,0.00,40.00,13,6,20,0.00
2013-3-19,54,43,34,18,6,-10,49,24,7,0.00,40.00,11,6,16,0.00
2013-3-20,60,47,34,38,20,5,74,35,21,0.00,40.00,20,6,24,0.00
2013-3-21,52,40,30,38,23,-1,93,56,15,0.00,40.00,20,8,27,0.00
2013-3-22,35,28,22,28,17,11,92,65,41,0.00,40.00,14,7,20,0.00
2013-3-23,32,25,20,24,15,6,90,66,45,0.00,40.00,9,3,14,0.00
2013-3-24,39,28,18,17,12,6,84,55,29,0.00,40.00,13,6,18,0.00
2013-3-25,51,34,19,19,13,8,75,44,23,0.00,40.00,11,4,15,0.00
2013-3-26,61,46,31,27,20,11,67,39,14,0.00,40.00,19,6,23,0.00
2013-3-27,65,49,32,27,22,11,75,38,12,0.00,40.00,12,5,18,0.00
2013-3-28,66,53,39,32,22,17,48,31,15,0.00,40.00,16,8,23,0.00
2013-3-29,63,52,41,41,31,27,69,45,26,0.00,40.00,24,5,31,0.00
2013-3-30,65,51,37,33,28,-100,73,45,24,0.00,40.00,17,6,22,0.00
2013-3-31,69,52,32,36,23,15,74,36,14,0.00,40.00,19,5,25,0.00
2013-4-1,56,48,39,39,35,26,89,64,34,0.00,40.00,33,11,41,0.00
2013-4-2,56,45,38,40,36,33,93,73,45,0.00,40.00,13,5,16,0.00
2013-4-3,65,50,37,41,33,15,86,57,14,0.00,40.00,13,7,16,0.00
2013-4-4,69,55,38,38,30,21,72,43,17,0.00,40.00,15,8,23,0.00
2013-4-5,58,52,44,42,34,27,91,51,33,0.00,40.00,17,8,29,0.00
2013-4-6,59,48,40,41,34,27,74,57,28,0.00,40.00,17,7,19,0.00
2013-4-7,63,50,37,36,28,17,82,48,16,0.00,40.00,16,8,29,0.00
2013-4-8,56,42,33,36,32,17,93,73,21,0.00,40.00,15,8,22,0.00
2013-4-9,38,30,24,31,21,13,94,70,37,0.00,40.00,14,6,17,0.00
2013-4-10,48,35,23,29,20,15,74,56,34,0.00,40.00,13,6,16,0.00
2013-4-11,55,46,39,39,31,25,85,59,32,0.00,40.00,13,7,16,0.00
2013-4-12,59,46,33,34,26,16,78,50,23,0.00,40.00,13,7,14,0.00
2013-4-13,64,48,39,35,27,17,73,46,20,0.00,40.00,26,14,43,0.00
2013-4-14,52,39,28,19,13,4,65,34,17,0.00,40.00,13,7,19,0.00
2013-4-15,47,38,30,34,28,17,94,70,40,0.00,40.00,16,8,20,0.00
2013-4-16,37,33,32,33,30,24,95,88,62,0.00,40.00,11,4,14,0.00
2013-4-17,42,34,26,25,17,9,76,51,26,0.00,40.00,20,8,25,0.00
2013-4-18,46,36,27,22,14,2,70,43,19,0.00,40.00,13,6,21,0.00
2013-4-19,56,42,28,33,20,12,64,44,23,0.00,40.00,17,9,21,0.00
2013-4-20,54,44,38,41,34,29,91,69,42,0.00,40.00,11,5,16,0.00
2013-4-21,63,48,34,35,28,22,80,50,21,0.00,40.00,16,8,22,0.00
2013-4-22,53,46,37,33,26,16,70,47,28,0.00,40.00,17,10,23,0.00
2013-4-23,50,39,29,22,15,3,60,40,16,0.00,40.00,11,6,15,0.00
2013-4-24,58,46,35,21,14,3,51,28,13,0.00,40.00,11,6,18,0.00
2013-4-25,63,48,31,28,17,4,70,34,12,0.00,40.00,13,6,17,0.00
2013-4-26,67,53,35,25,15,2,44,23,12,0.00,40.00,12,6,16,0.00
2013-4-27,71,56,40,29,22,13,50,29,14,0.00,40.00,11,7,15,0.00
2013-4-28,76,60,45,33,25,19,45,28,12,0.00,40.00,18,9,22,0.00
2013-4-29,73,62,45,35,28,21,59,29,14,0.00,40.00,18,7,26,0.00
2013-4-30,62,54,43,32,22,3,46,29,16,0.00,40.00,17,10,24,0.00
2013-5-1,50,40,31,23,10,2,49,28,14,0.00,40.00,19,7,24,0.00
2013-5-2,60,44,26,20,12,6,59,29,13,0.00,40.00,12,5,16,0.00
2013-5-3,70,52,31,25,16,7,67,28,9,0.00,40.00,11,6,16,0.00
2013-5-4,68,56,36,26,17,8,58,22,12,0.00,40.00,11,6,14,0.00
2013-5-5,75,60,48,35,26,16,59,30,10,0.00,40.00,26,7,41,0.00
2013-5-6,64,56,49,44,31,18,77,41,18,0.00,40.00,23,6,26,0.00
2013-5-7,64,50,41,42,36,27,88,63,25,0.00,40.00,25,7,37,0.00
2013-5-8,62,47,39,44,39,33,91,74,37,0.00,40.00,9,4,17,0.00
2013-5-9,69,51,33,44,35,21,95,61,17,0.00,40.00,15,4,27,0.00
2013-5-10,74,53,33,37,28,-100,89,49,14,0.00,40.00,18,5,22,0.00
2013-5-11,75,55,33,38,28,-100,88,46,11,0.00,40.00,25,5,41,0.00
2013-5-12,79,59,31,37,30,25,85,41,13,0.00,40.00,15,5,18,0.00
2013-5-13,84,61,35,40,31,24,85,43,11,0.00,40.00,16,5,20,0.00
2013-5-14,82,63,41,38,32,23,74,38,11,0.00,40.00,12,5,17,0.00
2013-5-15,79,61,41,37,31,22,74,40,11,0.00,40.00,22,6,27,0.00
2013-5-16,77,57,41,41,17,-100,80,39,14,0.00,40.00,23,6,62,0.00
2013-5-17,66,54,43,44,34,-100,78,54,25,0.00,40.00,25,6,37,0.00
2013-5-18,60,51,40,45,38,25,90,64,27,0.00,40.00,23,6,29,0.00
2013-5-19,59,47,34,41,35,29,91,66,33,0.00,40.00,19,5,24,0.00
2013-5-20,62,51,43,41,38,35,88,63,37,0.00,40.00,13,5,17,0.00
2013-5-21,70,53,33,41,33,23,94,54,16,0.00,40.00,14,5,20,0.00
2013-5-22,79,60,33,35,26,15,85,37,10,0.00,40.00,19,8,32,0.00
2013-5-23,72,56,33,35,28,14,86,40,11,0.00,40.00,24,9,37,0.00
2013-5-24,71,54,30,33,23,11,84,37,10,0.00,40.00,19,6,27,0.00
2013-5-25,76,58,34,33,22,11,74,33,9,0.00,40.00,20,8,29,0.00
2013-5-26,77,60,36,36,20,11,63,27,8,0.00,40.00,19,7,33,0.00
2013-5-27,70,59,40,36,27,18,64,32,14,0.00,40.00,15,6,27,0.00
2013-5-28,63,51,42,43,36,28,88,59,28,0.00,40.00,20,6,30,0.00
2013-5-29,59,49,37,42,36,26,94,64,28,0.00,40.00,21,5,26,0.00
2013-5-30,63,50,35,40,31,20,92,56,20,0.00,40.00,16,6,23,0.00
2013-5-31,67,50,30,32,21,9,83,39,11,0.00,40.00,14,6,19,0.00
2013-6-1,76,53,27,26,20,8,71,34,8,0.00,40.00,15,5,19,0.00
2013-6-2,86,61,32,32,24,16,77,33,7,0.00,40.00,17,6,29,0.00
2013-6-3,76,64,42,38,22,9,68,24,8,0.00,40.00,18,7,25,0.00
2013-6-4,78,56,30,30,23,16,70,32,12,0.00,40.00,14,5,19,0.00
2013-6-5,79,57,34,37,30,23,80,41,12,0.00,40.00,11,5,22,0.00
2013-6-6,82,59,35,38,30,22,80,41,11,0.00,40.00,14,5,21,0.00
2013-6-7,84,62,37,39,32,28,78,40,13,0.00,40.00,18,5,23,0.00
2013-6-8,84,65,43,43,33,21,78,38,10,0.00,40.00,18,6,25,0.00
2013-6-9,90,65,38,40,32,25,76,37,10,0.00,40.00,15,5,22,0.00
2013-6-10,90,71,47,45,28,12,67,28,6,0.00,40.00,17,7,33,0.00
2013-6-11,83,68,48,43,23,14,63,22,8,0.00,40.00,16,6,30,0.00
2013-6-12,86,70,42,37,28,19,66,25,8,0.00,40.00,14,6,25,0.00
2013-6-13,86,78,62,35,25,10,31,14,5,0.00,40.00,21,9,31,0.00
2013-6-14,75,61,37,37,29,16,77,34,10,0.00,40.00,15,7,19,0.00
2013-6-15,81,60,33,32,26,17,81,38,9,0.00,40.00,15,6,21,0.00
2013-6-16,86,73,35,27,19,7,69,16,5,0.00,40.00,14,6,25,0.00
2013-6-17,86,70,35,32,20,9,63,20,5,0.00,40.00,17,6,24,0.00
2013-6-18,87,71,36,32,21,12,58,19,6,0.00,40.00,16,6,25,0.00
2013-6-19,78,68,49,27,19,13,32,15,10,0.00,40.00,24,8,35,0.00
2013-6-20,74,53,29,28,22,17,67,33,13,0.00,40.00,16,5,24,0.00
2013-6-21,76,75,74,26,24,23,15,14,13,0.00,40.00,14,10,21,0.00
2013-6-22,75,67,51,35,26,19,49,23,12,0.00,40.00,18,8,26,0.00
2013-6-23,84,70,39,32,27,22,68,23,10,0.00,40.00,15,6,21,0.00
2013-6-24,81,70,48,49,32,25,76,30,12,0.00,40.00,17,6,34,0.00
2013-6-25,82,65,44,49,40,33,91,48,17,0.00,40.00,14,4,21,0.00
2013-6-26,88,76,47,47,38,33,71,30,13,0.00,40.00,16,7,24,0.00
2013-6-27,96,82,52,47,38,32,62,24,10,0.00,40.00,12,5,18,0.00
2013-6-28,95,82,53,47,40,31,69,25,10,0.00,40.00,12,5,20,0.00
2013-6-29,98,83,57,46,38,30,61,23,9,0.00,40.00,14,5,22,0.00
2013-6-30,95,82,60,48,38,25,57,25,8,0.00,40.00,15,6,21,0.00
2013-7-1,95,84,50,42,36,28,56,20,9,0.00,40.00,14,6,19,0.00
2013-7-2,94,84,57,43,36,30,52,19,10,0.00,40.00,14,6,22,0.00
2013-7-3,95,80,56,48,41,33,57,26,11,0.00,40.00,10,4,18,0.00
2013-7-4,89,74,62,59,49,39,87,46,17,0.00,40.00,14,5,20,0.00
2013-7-5,88,72,59,58,51,39,89,54,19,0.00,40.00,13,5,27,0.00
2013-7-6,88,69,57,57,51,37,91,60,17,0.00,40.00,17,6,27,0.00
2013-7-7,86,67,54,56,52,39,92,63,19,0.00,40.00,23,5,28,0.00
2013-7-8,89,68,54,55,46,-100,89,54,14,0.00,40.00,21,5,30,0.00
2013-7-9,91,76,52,51,36,19,81,34,7,0.00,40.00,14,6,19,0.00
2013-7-10,94,79,53,40,24,-100,55,17,7,0.00,40.00,13,5,16,0.00
2013-7-11,88,72,53,54,42,32,68,37,13,0.00,40.00,20,6,30,0.00
2013-7-12,79,66,58,59,53,46,92,68,31,0.00,40.00,9,3,10,0.00
2013-7-13,86,73,59,58,50,39,88,51,20,0.00,40.00,16,6,21,0.00
2013-7-14,89,70,49,52,47,35,91,51,14,0.00,40.00,11,3,15,0.00
2013-7-15,92,73,56,53,48,38,77,45,15,0.00,40.00,13,4,19,0.00
2013-7-16,91,73,61,56,51,41,72,49,17,0.00,40.00,18,5,27,0.00
2013-7-17,90,73,59,61,54,44,88,56,21,0.00,40.00,15,5,22,0.00
2013-7-20,93,79,52,47,32,-100,65,22,9,0.00,40.00,11,5,23,0.00
2013-7-21,95,82,47,45,32,23,63,19,8,0.00,40.00,15,5,22,0.00
2013-7-22,95,79,47,47,33,23,63,22,7,0.00,40.00,17,6,22,0.00
2013-7-23,94,80,55,40,32,23,47,20,8,0.00,40.00,13,5,16,0.00
2013-7-24,84,70,54,49,42,34,57,37,24,0.00,40.00,11,5,19,0.00
2013-7-25,91,77,52,52,41,33,80,33,13,0.00,40.00,13,5,16,0.00
2013-7-26,92,77,47,44,35,25,72,27,9,0.00,40.00,13,5,17,0.00
2013-7-27,80,69,62,54,46,35,67,44,31,0.00,40.00,12,5,18,0.00
2013-7-28,81,66,49,54,47,32,92,56,19,0.00,40.00,15,5,26,0.00
2013-7-29,83,66,56,52,47,39,72,53,21,0.00,40.00,16,5,30,0.00
2013-7-30,88,69,51,47,39,27,83,43,11,0.00,40.00,18,6,28,0.00
2013-7-31,91,78,50,42,34,26,62,25,10,0.00,40.00,18,7,28,0.00
2013-8-1,88,77,50,51,45,36,64,34,20,0.00,40.00,25,10,33,0.00
2013-8-2,69,63,52,53,50,47,82,64,50,0.00,40.00,10,3,15,0.00
2013-8-15,88,73,63,30,13,-100,26,12,7,0.00,40.00,9,4,16,0.00
2013-8-16,88,65,48,36,22,-100,46,24,8,0.00,40.00,17,4,20,0.00
2013-8-17,88,65,57,54,37,-100,80,40,13,0.00,40.00,28,6,44,0.00
2013-8-18,87,67,49,53,45,34,84,52,15,0.00,40.00,16,6,22,0.00
2013-8-19,89,59,53,54,25,-100,70,46,15,0.00,40.00,17,5,20,0.00
2013-8-20,84,68,57,53,45,-100,77,50,22,0.00,40.00,21,6,23,0.00
2013-8-21,84,69,52,51,45,33,83,48,16,0.00,40.00,15,4,43,0.00
2013-8-22,81,65,55,52,45,41,67,51,24,0.00,40.00,33,7,37,0.00
2013-8-23,68,62,56,54,52,49,86,70,51,0.00,40.00,21,8,31,0.00
2013-8-24,79,62,48,53,45,-100,93,62,23,0.00,40.00,30,6,36,0.00
2013-8-25,78,68,57,49,45,39,67,45,25,0.00,40.00,20,10,26,0.00
2013-8-26,70,66,61,53,49,45,65,55,43,0.00,40.00,20,10,23,0.00
2013-8-27,73,65,59,53,50,48,69,57,40,0.00,40.00,12,6,21,0.00
2013-8-28,83,76,68,56,46,40,63,36,22,0.00,40.00,14,6,19,0.00
2013-8-29,86,70,52,49,46,41,81,46,21,0.00,40.00,18,4,21,0.00
2013-8-30,89,72,52,50,45,38,78,44,16,0.00,40.00,16,4,21,0.00
2013-8-31,87,66,52,52,43,-100,77,48,15,0.00,40.00,18,5,25,0.00
2013-9-1,79,67,57,56,48,44,73,53,30,0.00,40.00,10,3,17,0.00
2013-9-2,81,71,62,55,52,45,78,53,28,0.00,40.00,19,8,26,0.00
2013-9-3,83,68,54,54,49,43,81,55,24,0.00,40.00,18,4,23,0.00
2013-9-4,86,66,50,53,48,43,90,59,22,0.00,40.00,15,4,28,0.00
2013-9-5,84,71,59,53,48,42,64,46,22,0.00,40.00,25,8,33,0.00
2013-9-6,87,72,59,51,43,28,66,40,12,0.00,40.00,24,8,31,0.00
2013-9-7,84,64,57,55,46,-100,89,58,19,0.00,40.00,22,4,27,0.00
2013-9-17,78,74,72,44,34,28,36,22,17,0.00,40.00,0,0,1,0.00
2013-9-18,73,62,42,38,34,27,54,36,23,0.00,40.00,3,0,8,0.00
2013-9-19,63,51,39,30,25,18,66,40,20,0.00,40.00,14,9,19,0.00
2013-9-20,76,66,46,33,28,22,48,26,14,0.00,40.00,15,10,21,0.00
2013-9-21,77,62,51,37,26,-100,44,28,13,0.00,40.00,11,7,27,0.00
2013-9-22,66,60,51,38,32,26,60,35,23,0.00,40.00,14,7,23,0.00
2013-9-23,61,53,44,36,32,26,68,46,31,0.00,40.00,13,8,21,0.00
2013-9-24,73,57,38,32,22,8,72,33,7,0.00,40.00,12,6,26,0.00
2013-9-25,67,53,39,39,28,19,91,46,15,0.00,40.00,17,6,35,0.00
2013-9-26,46,39,35,36,34,32,91,82,58,0.00,40.00,11,5,16,0.00
2013-9-27,43,37,32,36,32,28,94,82,58,0.00,40.00,12,4,18,0.00
2013-9-28,57,39,31,29,23,-100,84,61,23,0.00,40.00,13,7,18,0.00
2013-9-29,67,55,39,29,24,17,65,34,14,0.00,40.00,21,8,38,0.00
2013-9-30,71,67,54,32,23,18,42,19,16,0.00,40.00,18,12,37,0.00
2013-10-1,64,54,50,33,31,28,44,41,29,0.00,40.00,12,5,16,0.00
2013-10-2,65,54,45,42,33,28,82,48,27,0.00,40.00,14,7,22,0.00
2013-10-3,48,41,33,40,30,19,90,66,43,0.00,40.00,14,6,23,0.00
2013-10-4,41,33,28,31,28,24,96,83,51,0.00,40.00,14,5,17,0.00
2013-10-5,49,37,28,29,25,22,81,63,36,0.00,40.00,13,7,18,0.00
2013-10-6,62,44,32,28,24,20,76,48,26,0.00,40.00,11,6,18,0.00
2013-10-7,71,64,53,27,22,19,31,21,13,0.00,40.00,14,9,18,0.00
2013-10-8,60,53,42,28,24,15,47,32,17,0.00,40.00,16,10,21,0.00
2013-10-9,62,48,34,40,28,20,90,51,20,0.00,40.00,17,7,25,0.00
2013-10-10,43,41,38,41,38,35,92,86,72,0.00,40.00,12,6,17,0.00
2013-10-12,59,50,48,33,20,-100,54,34,23,0.00,40.00,14,8,20,0.00
2013-10-13,50,44,39,42,37,32,94,77,50,0.00,40.00,11,5,17,0.00
2013-10-14,46,39,33,37,32,29,93,78,51,0.00,40.00,11,4,20,0.00
2013-10-15,45,39,31,25,23,18,70,52,34,0.00,40.00,8,5,12,0.00
2013-10-16,48,38,28,25,21,19,73,53,34,0.00,40.00,14,8,19,0.00
2013-10-17,50,40,33,25,20,16,64,46,25,0.00,40.00,14,7,21,0.00
2013-10-19,55,40,31,23,16,-100,64,42,21,0.00,40.00,14,7,20,0.00
2013-10-20,55,44,36,24,20,17,55,40,23,0.00,40.00,12,6,20,0.00
2013-10-21,56,46,36,26,24,20,59,43,26,0.00,40.00,14,8,19,0.00
2013-10-22,59,47,39,27,23,19,48,39,24,0.00,40.00,12,7,19,0.00
2013-10-23,63,52,42,27,22,17,45,32,20,0.00,40.00,11,8,18,0.00
2013-10-24,64,53,38,28,22,18,56,30,17,0.00,40.00,13,7,16,0.00
2013-10-25,63,52,45,25,21,17,37,30,17,0.00,40.00,11,7,19,0.00
2013-10-27,57,57,57,21,21,21,24,24,24,0.00,40.00,15,15,25,0.00
2013-12-12,33,25,20,19,15,13,74,65,55,0.00,40.00,2,1,6,0.00
2013-12-13,27,22,15,15,13,10,84,69,58,0.00,40.00,6,4,13,0.00
2013-12-14,29,19,14,21,3,-100,88,78,66,0.00,40.00,7,4,10,0.00
2013-12-15,38,31,27,21,20,18,74,65,44,0.00,40.00,9,6,9,0.00
2013-12-16,42,36,29,25,18,15,62,49,33,0.00,40.00,13,7,16,0.00
2013-12-17,39,37,35,22,21,18,54,50,47,0.00,40.00,11,9,14,0.00
2013-12-18,47,42,38,28,22,16,59,46,27,0.00,40.00,9,4,10,0.00
2013-12-19,39,30,24,34,28,23,96,93,81,0.00,40.00,13,4,26,0.00
2013-12-20,23,19,13,22,17,11,94,92,89,0.00,40.00,6,3,13,0.00
2013-12-21,16,16,16,14,14,14,90,90,90,0.00,40.00,4,4,6,0.00
2013-12-24,34,26,19,17,12,7,72,57,32,0.00,40.00,9,6,15,0.00
2013-12-26,37,28,19,17,12,7,71,54,28,0.00,40.00,7,5,10,0.00
2013-12-27,40,33,31,21,19,15,62,54,35,0.00,40.00,6,4,11,0.00
2013-12-28,30,23,21,19,2,-100,79,58,58,0.00,40.00,7,4,10,0.00
2013-12-29,31,23,19,13,11,9,71,60,43,0.00,40.00,9,6,14,0.00
2013-12-30,37,26,19,19,14,9,76,60,31,0.00,40.00,9,5,11,0.00
2013-12-31,39,35,28,31,25,19,86,68,45,0.00,40.00,8,4,12,0.00
2014-1-1,39,33,25,22,20,15,76,61,48,0.00,40.00,12,6,19,0.00
2014-1-2,42,32,24,19,15,12,66,51,28,0.00,40.00,10,4,14,0.00